createdAt,value
2022-09-28T00:01:19.698Z,2.00
2022-09-28T00:03:49.659Z,2.00
2022-09-28T00:06:20.616Z,2.40
2022-09-28T00:08:51.344Z,2.10
2022-09-28T00:11:21.872Z,2.10
2022-09-28T00:13:52.509Z,2.00
2022-09-28T00:16:24.134Z,2.20
2022-09-28T00:18:54.224Z,2.10
2022-09-28T00:21:25.070Z,2.00
2022-09-28T00:24:12.993Z,2.30
2022-09-28T00:26:50.400Z,2.20
2022-09-28T00:29:31.735Z,2.40
2022-09-28T00:32:10.351Z,2.30
2022-09-28T00:34:45.941Z,2.40
2022-09-28T00:37:24.975Z,2.90
2022-09-28T00:39:53.577Z,2.30
2022-09-28T00:42:25.136Z,2.60
2022-09-28T00:44:57.801Z,2.20
2022-09-28T00:47:42.279Z,2.40
2022-09-28T00:50:29.265Z,2.10
2022-09-28T00:53:18.726Z,2.50
2022-09-28T00:55:51.221Z,2.30
2022-09-28T00:58:28.276Z,2.10
2022-09-28T01:01:05.361Z,2.40
2022-09-28T01:03:48.776Z,2.10
2022-09-28T01:06:22.318Z,2.20
2022-09-28T01:08:53.824Z,2.40
2022-09-28T01:11:22.174Z,2.40
2022-09-28T01:13:54.077Z,2.30
2022-09-28T01:16:44.851Z,2.20
2022-09-28T01:19:35.334Z,2.40
2022-09-28T01:22:43.711Z,2.40
2022-09-28T01:25:30.218Z,2.40
2022-09-28T01:28:04.958Z,2.30
2022-09-28T01:30:51.237Z,2.40
2022-09-28T01:33:32.909Z,2.40
2022-09-28T01:36:17.928Z,2.40
2022-09-28T01:39:09.001Z,2.40
2022-09-28T01:41:40.460Z,2.50
2022-09-28T01:44:14.709Z,2.30
2022-09-28T01:47:05.382Z,2.30
2022-09-28T01:49:45.381Z,2.30
2022-09-28T01:52:19.523Z,2.20
2022-09-28T01:54:58.607Z,2.30
2022-09-28T01:57:37.728Z,2.50
2022-09-28T02:00:07.167Z,2.30
2022-09-28T02:03:09.792Z,2.40
2022-09-28T02:05:53.500Z,2.30
2022-09-28T02:08:30.069Z,2.30
2022-09-28T02:11:08.619Z,2.20
2022-09-28T02:13:44.992Z,2.60
2022-09-28T02:16:47.423Z,2.50
2022-09-28T02:19:30.551Z,2.50
2022-09-28T02:22:33.883Z,2.90
2022-09-28T02:25:14.053Z,2.80
2022-09-28T02:27:45.453Z,2.80
2022-09-28T02:30:14.708Z,2.60
2022-09-28T02:32:47.111Z,2.90
2022-09-28T02:35:19.919Z,3.00
2022-09-28T02:37:49.965Z,2.70
2022-09-28T02:40:22.294Z,2.70
2022-09-28T02:43:02.653Z,2.90
2022-09-28T02:45:48.407Z,2.60
2022-09-28T02:48:45.677Z,2.80
2022-09-28T02:51:16.694Z,2.70
2022-09-28T02:53:53.876Z,3.00
2022-09-28T02:56:45.131Z,2.80
2022-09-28T02:59:31.137Z,3.40
2022-09-28T03:01:59.366Z,3.20
2022-09-28T03:04:36.423Z,3.10
2022-09-28T03:07:12.730Z,3.20
2022-09-28T03:09:52.538Z,2.90
2022-09-28T03:12:23.631Z,3.50
2022-09-28T03:15:08.293Z,3.20
2022-09-28T03:17:36.483Z,3.30
2022-09-28T03:20:05.582Z,3.30
2022-09-28T03:22:33.732Z,3.20
2022-09-28T03:25:01.732Z,3.10
2022-09-28T03:27:30.184Z,3.20
2022-09-28T03:29:58.388Z,3.50
2022-09-28T03:32:26.430Z,3.00
2022-09-28T03:34:54.516Z,3.30
2022-09-28T03:37:23.100Z,3.40
2022-09-28T03:39:51.162Z,3.20
2022-09-28T03:42:19.222Z,4.40
2022-09-28T03:44:49.425Z,4.10
2022-09-28T03:47:19.426Z,3.70
2022-09-28T03:49:47.589Z,4.00
2022-09-28T03:52:15.974Z,3.80
2022-09-28T03:54:48.964Z,4.00
2022-09-28T03:57:17.445Z,4.20
2022-09-28T03:59:45.536Z,3.80
2022-09-28T04:02:13.673Z,3.80
2022-09-28T04:04:43.437Z,3.50
2022-09-28T04:07:11.831Z,3.70
2022-09-28T04:09:40.149Z,4.50
2022-09-28T04:12:08.180Z,3.50
2022-09-28T04:14:36.581Z,4.10
2022-09-28T04:17:05.760Z,3.80
2022-09-28T04:19:34.036Z,3.80
2022-09-28T04:22:17.742Z,3.90
2022-09-28T04:24:46.554Z,4.00
2022-09-28T04:27:33.104Z,3.80
2022-09-28T04:30:02.028Z,3.80
2022-09-28T04:34:59.119Z,3.80
2022-09-28T04:37:27.263Z,4.00
2022-09-28T04:39:55.316Z,3.90
2022-09-28T04:42:23.612Z,3.70
2022-09-28T04:44:52.336Z,4.20
2022-09-28T04:47:20.447Z,4.80
2022-09-28T04:50:09.181Z,4.80
2022-09-28T04:52:57.281Z,5.30
2022-09-28T04:55:25.477Z,4.80
2022-09-28T04:57:53.953Z,4.60
2022-09-28T05:00:22.145Z,4.30
2022-09-28T05:03:05.984Z,4.70
2022-09-28T05:06:00.338Z,4.10
2022-09-28T05:08:51.993Z,4.50
2022-09-28T05:11:21.656Z,4.20
2022-09-28T05:13:50.521Z,4.30
2022-09-28T05:19:07.066Z,3.80
2022-09-28T05:21:35.608Z,4.20
2022-09-28T05:24:07.524Z,3.80
2022-09-28T05:26:40.086Z,3.80
2022-09-28T05:29:11.764Z,4.40
2022-09-28T05:31:52.413Z,3.90
2022-09-28T05:34:32.825Z,4.30
2022-09-28T05:37:01.111Z,4.50
2022-09-28T05:39:29.345Z,4.20
2022-09-28T05:41:58.105Z,4.10
2022-09-28T05:44:26.332Z,4.50
2022-09-28T05:46:55.350Z,5.30
2022-09-28T05:49:24.133Z,4.80
2022-09-28T05:51:52.446Z,4.70
2022-09-28T05:54:21.681Z,4.50
2022-09-28T05:56:52.080Z,4.50
2022-09-28T05:59:20.287Z,4.70
2022-09-28T06:01:49.010Z,4.30
2022-09-28T06:04:17.324Z,4.70
2022-09-28T06:06:45.848Z,4.30
2022-09-28T06:09:13.946Z,4.40
2022-09-28T06:11:54.357Z,4.40
2022-09-28T06:14:32.534Z,4.60
2022-09-28T06:17:00.581Z,4.40
2022-09-28T06:19:28.914Z,4.10
2022-09-28T06:22:25.098Z,4.00
2022-09-28T06:25:06.967Z,3.80
2022-09-28T06:27:35.262Z,3.80
2022-09-28T06:30:04.157Z,4.00
2022-09-28T06:32:32.583Z,4.00
2022-09-28T06:35:00.515Z,3.70
2022-09-28T06:37:28.987Z,4.30
2022-09-28T06:39:57.393Z,4.10
2022-09-28T06:42:25.470Z,4.10
2022-09-28T06:45:12.070Z,3.90
2022-09-28T06:48:07.225Z,3.60
2022-09-28T06:50:41.353Z,3.90
2022-09-28T06:53:25.036Z,3.80
2022-09-28T06:56:15.706Z,4.90
2022-09-28T06:58:43.777Z,4.10
2022-09-28T07:01:12.312Z,3.80
2022-09-28T07:03:55.417Z,3.90
2022-09-28T07:06:47.822Z,3.70
2022-09-28T07:09:55.453Z,3.70
2022-09-28T07:13:04.747Z,4.10
2022-09-28T07:15:43.799Z,3.50
2022-09-28T07:18:14.955Z,3.20
2022-09-28T07:20:52.180Z,2.90
2022-09-28T07:23:22.389Z,2.30
2022-09-28T07:26:09.294Z,2.40
2022-09-28T07:29:09.560Z,2.10
2022-09-28T07:32:00.410Z,2.00
2022-09-28T07:34:58.971Z,1.90
2022-09-28T07:37:38.680Z,1.80
2022-09-28T07:40:26.542Z,2.10
2022-09-28T07:42:54.665Z,2.00
2022-09-28T07:45:26.128Z,2.10
2022-09-28T07:47:57.169Z,2.10
2022-09-28T07:50:54.600Z,1.90
2022-09-28T07:53:38.965Z,2.20
2022-09-28T07:56:34.972Z,2.40
2022-09-28T07:59:08.501Z,2.10
2022-09-28T08:01:54.757Z,2.20
2022-09-28T08:04:25.407Z,2.30
2022-09-28T08:06:53.486Z,2.20
2022-09-28T08:09:21.702Z,2.30
2022-09-28T08:12:10.991Z,2.10
2022-09-28T08:14:46.702Z,1.90
2022-09-28T08:17:50.449Z,1.90
2022-09-28T08:20:39.294Z,1.60
2022-09-28T08:23:09.201Z,2.30
2022-09-28T08:25:38.887Z,2.20
2022-09-28T08:28:08.004Z,2.10
2022-09-28T08:30:44.398Z,1.90
2022-09-28T08:33:28.393Z,2.00
2022-09-28T08:36:14.918Z,2.10
2022-09-28T08:39:01.336Z,2.50
2022-09-28T08:42:37.139Z,2.20
2022-09-28T08:45:26.170Z,3.40
2022-09-28T08:48:37.769Z,4.00
2022-09-28T08:51:35.988Z,3.40
2022-09-28T08:54:39.252Z,3.20
2022-09-28T08:57:20.772Z,3.40
2022-09-28T08:59:54.517Z,3.20
2022-09-28T09:02:33.797Z,2.90
2022-09-28T09:05:26.936Z,3.60
2022-09-28T09:08:37.192Z,6.00
2022-09-28T09:11:21.052Z,5.80
2022-09-28T09:13:52.985Z,6.00
2022-09-28T09:16:44.254Z,4.80
2022-09-28T09:19:54.216Z,5.20
2022-09-28T09:22:55.796Z,5.80
2022-09-28T09:25:54.989Z,4.50
2022-09-28T09:28:39.676Z,4.20
2022-09-28T09:31:45.476Z,3.90
2022-09-28T09:34:25.717Z,4.30
2022-09-28T09:40:34.665Z,3.60
2022-09-28T09:43:29.528Z,3.20
2022-09-28T09:49:29.329Z,3.20
2022-09-28T09:52:24.808Z,2.90
2022-09-28T09:55:03.820Z,2.60
2022-09-28T09:58:21.856Z,3.20
2022-09-28T10:01:07.483Z,3.10
2022-09-28T10:03:56.720Z,2.80
2022-09-28T10:06:34.861Z,2.60
2022-09-28T10:09:24.180Z,3.20
2022-09-28T10:11:54.119Z,3.10
2022-09-28T10:14:25.113Z,2.30
2022-09-28T10:17:04.102Z,2.20
2022-09-28T10:20:04.984Z,2.40
2022-09-28T10:22:52.285Z,2.30
2022-09-28T10:25:25.223Z,2.20
2022-09-28T10:27:53.444Z,2.20
2022-09-28T10:30:24.226Z,2.00
2022-09-28T10:32:59.247Z,2.10
2022-09-28T10:35:40.469Z,2.00
2022-09-28T10:38:18.933Z,2.30
2022-09-28T10:43:39.302Z,1.90
2022-09-28T10:46:21.461Z,1.60
2022-09-28T10:48:56.493Z,1.70
2022-09-28T10:51:46.893Z,1.60
2022-09-28T10:54:30.602Z,1.50
2022-09-28T10:57:01.242Z,1.60
2022-09-28T10:59:49.200Z,1.70
2022-09-28T11:02:43.366Z,1.70
2022-09-28T11:05:24.963Z,1.60
2022-09-28T11:07:56.492Z,1.70
2022-09-28T11:10:31.096Z,1.20
2022-09-28T11:13:03.659Z,1.50
2022-09-28T11:15:33.661Z,1.40
2022-09-28T11:18:31.647Z,1.40
2022-09-28T11:21:14.904Z,1.60
2022-09-28T11:24:06.015Z,1.40
2022-09-28T11:26:41.151Z,1.60
2022-09-28T11:29:30.989Z,1.50
2022-09-28T11:35:30.031Z,1.40
2022-09-28T11:38:14.974Z,1.20
2022-09-28T11:41:35.340Z,1.50
2022-09-28T11:44:15.168Z,1.60
2022-09-28T11:46:56.192Z,1.40
2022-09-28T11:49:33.719Z,1.40
2022-09-28T11:52:10.068Z,1.40
2022-09-28T11:54:48.497Z,1.30
2022-09-28T11:57:22.486Z,1.20
2022-09-28T11:59:59.655Z,1.40
2022-09-28T12:02:40.116Z,1.40
2022-09-28T12:05:17.134Z,1.30
2022-09-28T12:07:54.987Z,1.40
2022-09-28T12:10:54.012Z,1.40
2022-09-28T12:13:33.315Z,1.50
2022-09-28T12:16:45.196Z,1.40
2022-09-28T12:19:16.013Z,1.20
2022-09-28T12:21:53.931Z,1.20
2022-09-28T12:24:28.267Z,1.30
2022-09-28T12:28:03.838Z,1.40
2022-09-28T12:30:40.601Z,1.30
2022-09-28T12:33:12.467Z,1.20
2022-09-28T12:36:04.153Z,1.30
2022-09-28T12:38:48.249Z,1.10
2022-09-28T12:41:34.915Z,1.50
2022-09-28T12:44:24.493Z,1.50
2022-09-28T12:47:09.673Z,1.10
2022-09-28T12:52:50.597Z,2.10
2022-09-28T12:55:26.600Z,1.20
2022-09-28T12:58:03.910Z,1.10
2022-09-28T13:00:40.827Z,1.20
2022-09-28T13:03:23.705Z,1.30
2022-09-28T13:06:15.285Z,1.00
2022-09-28T13:09:04.107Z,1.00
2022-09-28T13:11:41.368Z,0.90
2022-09-28T13:14:57.797Z,1.10
2022-09-28T13:17:45.987Z,1.10
2022-09-28T13:20:31.335Z,1.10
2022-09-28T13:23:15.440Z,1.30
2022-09-28T13:25:50.117Z,1.20
2022-09-28T13:28:26.177Z,0.90
2022-09-28T13:30:56.955Z,1.30
2022-09-28T13:33:36.785Z,1.20
2022-09-28T13:36:27.553Z,1.00
2022-09-28T13:39:04.468Z,1.30
2022-09-28T13:41:36.700Z,1.10
2022-09-28T13:44:27.147Z,1.10
2022-09-28T13:47:39.994Z,1.30
2022-09-28T13:50:17.022Z,1.20
2022-09-28T13:52:52.636Z,1.30
2022-09-28T13:55:54.101Z,1.20
2022-09-28T13:58:36.141Z,1.50
2022-09-28T14:01:10.734Z,1.30
2022-09-28T14:03:43.889Z,1.20
2022-09-28T14:06:24.425Z,1.40
2022-09-28T14:08:52.290Z,1.20
2022-09-28T14:11:24.759Z,1.40
2022-09-28T14:14:07.618Z,1.30
2022-09-28T14:16:37.026Z,1.60
2022-09-28T14:19:21.075Z,1.40
2022-09-28T14:22:36.549Z,1.40
2022-09-28T14:25:20.001Z,1.50
2022-09-28T14:28:06.744Z,1.70
2022-09-28T14:30:43.674Z,1.90
2022-09-28T14:33:21.004Z,1.40
2022-09-28T14:35:54.110Z,1.40
2022-09-28T14:38:46.717Z,1.50
2022-09-28T14:41:19.668Z,1.40
2022-09-28T14:43:47.766Z,1.20
2022-09-28T14:46:17.277Z,1.30
2022-09-28T14:48:55.844Z,1.30
2022-09-28T14:51:26.948Z,1.40
2022-09-28T14:54:02.241Z,1.40
2022-09-28T14:56:58.953Z,1.30
2022-09-28T14:59:38.436Z,1.30
2022-09-28T15:02:15.172Z,1.20
2022-09-28T15:05:00.136Z,1.20
2022-09-28T15:07:34.279Z,1.40
2022-09-28T15:10:02.788Z,1.10
2022-09-28T15:12:32.532Z,1.30
2022-09-28T15:15:03.077Z,1.50
2022-09-28T15:17:39.717Z,1.40
2022-09-28T15:20:25.368Z,1.20
2022-09-28T15:22:58.709Z,1.20
2022-09-28T15:25:29.213Z,1.50
2022-09-28T15:28:01.282Z,1.30
2022-09-28T15:30:32.321Z,1.30
2022-09-28T15:33:21.727Z,1.20
2022-09-28T15:35:59.376Z,1.00
2022-09-28T15:38:28.899Z,1.20
2022-09-28T15:40:57.569Z,1.40
2022-09-28T15:43:29.100Z,1.50
2022-09-28T15:46:06.676Z,1.70
2022-09-28T15:48:38.811Z,1.50
2022-09-28T15:51:12.360Z,1.30
2022-09-28T15:53:44.060Z,1.50
2022-09-28T15:56:12.245Z,1.20
2022-09-28T15:58:40.301Z,1.30
2022-09-28T16:01:17.683Z,1.20
2022-09-28T16:03:45.681Z,1.30
2022-09-28T16:06:14.534Z,1.40
2022-09-28T16:08:49.015Z,1.50
2022-09-28T16:11:23.965Z,1.30
2022-09-28T16:14:06.405Z,1.30
2022-09-28T16:16:43.285Z,1.30
2022-09-28T16:19:37.847Z,1.20
2022-09-28T16:22:16.209Z,1.20
2022-09-28T16:24:54.585Z,1.30
2022-09-28T16:27:39.846Z,1.20
2022-09-28T16:30:24.892Z,1.20
2022-09-28T16:33:02.199Z,1.30
2022-09-28T16:35:53.773Z,1.40
2022-09-28T16:38:21.890Z,1.20
2022-09-28T16:40:54.582Z,1.40
2022-09-28T16:43:28.745Z,1.00
2022-09-28T16:45:59.640Z,1.20
2022-09-28T16:48:30.270Z,1.10
2022-09-28T16:50:59.069Z,1.40
2022-09-28T16:53:45.889Z,1.60
2022-09-28T16:56:22.416Z,1.30
2022-09-28T16:58:50.746Z,1.40
2022-09-28T17:01:19.639Z,2.20
2022-09-28T17:03:50.136Z,1.40
2022-09-28T17:06:20.846Z,1.70
2022-09-28T17:08:49.057Z,1.60
2022-09-28T17:11:23.996Z,1.70
2022-09-28T17:13:58.339Z,1.60
2022-09-28T17:19:23.724Z,1.90
2022-09-28T17:21:52.645Z,1.60
2022-09-28T17:24:21.149Z,1.80
2022-09-28T17:26:51.311Z,1.70
2022-09-28T17:29:30.226Z,1.60
2022-09-28T17:32:05.077Z,1.60
2022-09-28T17:34:33.199Z,1.70
2022-09-28T17:37:01.246Z,1.80
2022-09-28T17:39:31.754Z,1.60
2022-09-28T17:42:00.022Z,1.70
2022-09-28T17:44:28.440Z,1.40
2022-09-28T17:46:57.185Z,1.70
2022-09-28T17:49:25.272Z,1.50
2022-09-28T17:51:53.449Z,1.60
2022-09-28T17:54:22.801Z,1.60
2022-09-28T17:56:51.194Z,1.70
2022-09-28T17:59:19.344Z,1.70
2022-09-28T18:01:48.365Z,1.70
2022-09-28T18:04:39.782Z,1.40
2022-09-28T18:07:05.623Z,1.40
2022-09-28T18:09:34.034Z,1.40
2022-09-28T18:12:07.836Z,1.40
2022-09-28T18:14:44.798Z,1.30
2022-09-28T18:17:12.835Z,2.20
2022-09-28T18:19:40.879Z,1.30
2022-09-28T18:22:08.870Z,1.50
2022-09-28T18:24:36.854Z,1.40
2022-09-28T18:27:05.117Z,1.40
2022-09-28T18:29:33.735Z,1.50
2022-09-28T18:34:31.202Z,1.30
2022-09-28T18:36:59.355Z,1.60
2022-09-28T18:39:27.412Z,1.50
2022-09-28T18:41:55.461Z,1.50
2022-09-28T18:44:24.212Z,1.80
2022-09-28T18:46:52.310Z,1.60
2022-09-28T18:49:21.779Z,1.60
2022-09-28T18:51:49.975Z,1.80
2022-09-28T18:54:18.133Z,1.40
2022-09-28T18:56:46.206Z,1.70
2022-09-28T18:59:14.859Z,1.80
2022-09-28T19:01:43.527Z,1.70
2022-09-28T19:04:13.531Z,1.80
2022-09-28T19:06:44.495Z,1.60
2022-09-28T19:09:13.237Z,1.50
2022-09-28T19:11:44.572Z,1.80
2022-09-28T19:14:15.137Z,1.90
2022-09-28T19:16:44.972Z,2.10
2022-09-28T19:19:15.043Z,1.80
2022-09-28T19:21:43.894Z,2.10
2022-09-28T19:24:17.475Z,1.90
2022-09-28T19:26:46.712Z,2.00
2022-09-28T19:29:15.959Z,1.80
2022-09-28T19:31:43.996Z,2.20
2022-09-28T19:34:14.178Z,1.90
2022-09-28T19:36:43.101Z,1.90
2022-09-28T19:39:14.798Z,1.90
2022-09-28T19:41:49.452Z,1.70
2022-09-28T19:44:26.836Z,1.80
2022-09-28T19:47:00.168Z,1.70
2022-09-28T19:49:33.239Z,1.80
2022-09-28T19:52:13.439Z,1.90
2022-09-28T19:54:57.367Z,2.40
2022-09-28T19:57:30.720Z,2.30
2022-09-28T20:00:03.707Z,2.70
2022-09-28T20:02:36.910Z,2.00
2022-09-28T20:05:05.476Z,2.40
2022-09-28T20:07:34.838Z,2.30
2022-09-28T20:10:03.315Z,2.50
2022-09-28T20:12:31.783Z,2.20
2022-09-28T20:14:59.791Z,2.80
2022-09-28T20:17:27.952Z,2.70
2022-09-28T20:19:55.993Z,2.20
2022-09-28T20:22:24.078Z,2.40
2022-09-28T20:24:52.301Z,1.80
2022-09-28T20:27:24.340Z,2.80
2022-09-28T20:29:54.378Z,2.20
2022-09-28T20:32:22.389Z,2.40
2022-09-28T20:34:50.963Z,2.30
2022-09-28T20:37:19.369Z,2.40
2022-09-28T20:39:47.419Z,2.50
2022-09-28T20:42:15.780Z,2.60
2022-09-28T20:44:44.187Z,3.00
2022-09-28T20:47:12.483Z,2.90
2022-09-28T20:49:40.925Z,2.80
2022-09-28T20:52:09.058Z,2.80
2022-09-28T20:54:46.587Z,2.60
2022-09-28T20:57:17.806Z,2.70
2022-09-28T20:59:55.105Z,2.90
2022-09-28T21:02:26.739Z,2.70
2022-09-28T21:04:57.908Z,2.90
2022-09-28T21:07:26.017Z,3.30
2022-09-28T21:09:53.967Z,3.00
2022-09-28T21:14:40.479Z,2.70
2022-09-28T21:17:08.528Z,2.70
2022-09-28T21:19:36.601Z,2.70
2022-09-28T21:22:04.664Z,2.50
2022-09-28T21:24:32.841Z,2.30
2022-09-28T21:27:01.119Z,2.60
2022-09-28T21:29:29.361Z,2.50
2022-09-28T21:31:57.386Z,2.80
2022-09-28T21:34:25.698Z,2.70
2022-09-28T21:36:54.581Z,2.70
2022-09-28T21:39:22.664Z,2.60
2022-09-28T21:41:50.773Z,2.50
2022-09-28T21:44:19.068Z,2.50
2022-09-28T21:46:47.231Z,2.50
2022-09-28T21:49:15.347Z,2.50
2022-09-28T21:51:43.372Z,2.70
2022-09-28T21:54:12.177Z,2.50
2022-09-28T21:56:40.349Z,2.60
2022-09-28T21:59:08.507Z,2.40
2022-09-28T22:01:36.688Z,2.40
2022-09-28T22:04:09.054Z,2.20
2022-09-28T22:06:37.058Z,2.50
2022-09-28T22:09:06.019Z,2.60
2022-09-28T22:11:34.294Z,2.30
2022-09-28T22:14:02.319Z,2.60
2022-09-28T22:16:31.870Z,2.50
2022-09-28T22:19:00.046Z,2.70
2022-09-28T22:21:32.046Z,2.40
2022-09-28T22:24:02.345Z,3.00
2022-09-28T22:26:31.891Z,2.70
2022-09-28T22:29:05.523Z,2.50
2022-09-28T22:31:36.973Z,2.60
2022-09-28T22:34:05.689Z,3.00
2022-09-28T22:36:34.573Z,2.20
2022-09-28T22:39:02.862Z,2.50
2022-09-28T22:41:32.234Z,2.90
2022-09-28T22:44:00.642Z,2.60
2022-09-28T22:46:32.113Z,3.00
2022-09-28T22:49:00.971Z,3.00
2022-09-28T22:51:30.314Z,3.30
2022-09-28T22:53:59.052Z,3.90
2022-09-28T22:56:27.365Z,3.30
2022-09-28T22:58:55.824Z,3.00
2022-09-28T23:01:29.258Z,3.30
2022-09-28T23:03:58.523Z,3.60
2022-09-28T23:08:57.125Z,3.20
2022-09-28T23:11:25.352Z,3.00
2022-09-28T23:13:56.026Z,3.10
2022-09-28T23:16:25.775Z,3.40
2022-09-28T23:18:55.345Z,3.20
2022-09-28T23:21:25.885Z,3.10
2022-09-28T23:23:56.713Z,3.50
2022-09-28T23:26:28.173Z,3.40
2022-09-28T23:28:56.768Z,3.00
2022-09-28T23:31:28.476Z,3.20
2022-09-28T23:34:01.442Z,3.20
2022-09-28T23:36:30.712Z,3.10
2022-09-28T23:41:27.038Z,3.00
2022-09-28T23:43:55.111Z,3.00
2022-09-28T23:46:23.547Z,3.40
2022-09-28T23:48:54.301Z,3.00
2022-09-28T23:51:22.402Z,2.60
2022-09-28T23:53:50.748Z,3.10
2022-09-28T23:56:18.850Z,3.30
2022-09-28T23:58:47.050Z,3.30
